createdAt,value
2022-10-04T00:00:25.368Z,9.40
2022-10-04T00:03:02.741Z,9.45
2022-10-04T00:05:33.104Z,9.40
2022-10-04T00:08:24.780Z,9.49
2022-10-04T00:11:06.375Z,9.50
2022-10-04T00:13:39.740Z,9.56
2022-10-04T00:16:09.130Z,9.41
2022-10-04T00:18:42.689Z,9.43
2022-10-04T00:21:11.328Z,9.50
2022-10-04T00:23:46.919Z,9.46
2022-10-04T00:27:09.866Z,9.45
2022-10-04T00:29:43.321Z,9.50
2022-10-04T00:32:32.591Z,9.50
2022-10-04T00:35:01.680Z,9.47
2022-10-04T00:37:59.646Z,9.48
2022-10-04T00:40:34.173Z,9.48
2022-10-04T00:43:06.425Z,9.42
2022-10-04T00:45:44.652Z,9.45
2022-10-04T00:48:39.739Z,9.45
2022-10-04T00:51:20.705Z,9.40
2022-10-04T00:54:04.431Z,9.40
2022-10-04T00:56:44.643Z,9.41
2022-10-04T00:59:30.577Z,9.38
2022-10-04T01:02:06.968Z,9.47
2022-10-04T01:04:44.273Z,9.47
2022-10-04T01:07:18.597Z,9.42
2022-10-04T01:09:54.171Z,9.47
2022-10-04T01:12:41.945Z,9.47
2022-10-04T01:15:19.342Z,9.34
2022-10-04T01:18:16.844Z,9.27
2022-10-04T01:20:56.552Z,9.33
2022-10-04T01:23:42.917Z,9.25
2022-10-04T01:26:41.489Z,9.17
2022-10-04T01:29:15.401Z,9.19
2022-10-04T01:31:47.357Z,9.22
2022-10-04T01:34:19.343Z,9.22
2022-10-04T01:36:49.964Z,9.25
2022-10-04T01:39:23.514Z,9.24
2022-10-04T01:42:01.808Z,9.24
2022-10-04T01:44:37.954Z,9.25
2022-10-04T01:47:14.267Z,9.22
2022-10-04T01:49:46.029Z,9.21
2022-10-04T01:52:22.601Z,9.16
2022-10-04T01:55:04.461Z,9.18
2022-10-04T01:57:38.813Z,9.17
2022-10-04T02:00:12.395Z,9.17
2022-10-04T02:02:50.377Z,9.07
2022-10-04T02:05:30.143Z,9.06
2022-10-04T02:08:05.339Z,9.08
2022-10-04T02:10:43.244Z,9.12
2022-10-04T02:13:19.297Z,9.08
2022-10-04T02:15:50.060Z,9.07
2022-10-04T02:18:22.228Z,9.04
2022-10-04T02:20:53.111Z,9.11
2022-10-04T02:23:24.516Z,9.11
2022-10-04T02:25:54.804Z,9.03
2022-10-04T02:28:23.508Z,9.01
2022-10-04T02:31:30.882Z,8.99
2022-10-04T02:34:01.584Z,9.04
2022-10-04T02:36:31.606Z,9.07
2022-10-04T02:39:06.249Z,9.04
2022-10-04T02:41:44.591Z,9.05
2022-10-04T02:44:19.078Z,8.96
2022-10-04T02:46:55.551Z,8.96
2022-10-04T02:49:33.254Z,8.97
2022-10-04T02:52:07.588Z,8.91
2022-10-04T02:54:45.211Z,8.91
2022-10-04T02:57:22.156Z,8.81
2022-10-04T02:59:52.466Z,8.88
2022-10-04T03:02:30.151Z,8.84
2022-10-04T03:05:07.411Z,8.80
2022-10-04T03:07:38.244Z,8.75
2022-10-04T03:10:13.193Z,8.71
2022-10-04T03:12:44.138Z,8.56
2022-10-04T03:15:14.231Z,8.58
2022-10-04T03:17:45.230Z,8.59
2022-10-04T03:20:21.295Z,8.58
2022-10-04T03:22:55.635Z,8.53
2022-10-04T03:25:31.118Z,8.56
2022-10-04T03:28:05.211Z,8.51
2022-10-04T03:30:36.947Z,8.59
2022-10-04T03:33:07.754Z,8.49
2022-10-04T03:35:40.623Z,8.58
2022-10-04T03:38:13.233Z,8.50
2022-10-04T03:40:51.786Z,8.58
2022-10-04T03:43:26.311Z,8.64
2022-10-04T03:45:58.265Z,8.66
2022-10-04T03:48:36.461Z,8.65
2022-10-04T03:51:08.945Z,8.64
2022-10-04T03:53:43.452Z,8.56
2022-10-04T03:56:17.476Z,8.59
2022-10-04T03:58:50.464Z,8.61
2022-10-04T04:01:37.225Z,8.60
2022-10-04T04:04:20.475Z,8.48
2022-10-04T04:07:00.512Z,8.54
2022-10-04T04:09:43.605Z,8.53
2022-10-04T04:12:20.791Z,8.57
2022-10-04T04:14:53.733Z,8.56
2022-10-04T04:17:41.809Z,8.49
2022-10-04T04:20:26.100Z,8.56
2022-10-04T04:23:04.446Z,8.57
2022-10-04T04:25:38.287Z,8.54
2022-10-04T04:28:22.866Z,8.52
2022-10-04T04:30:58.719Z,8.52
2022-10-04T04:33:32.414Z,8.59
2022-10-04T04:36:08.179Z,8.56
2022-10-04T04:38:56.883Z,8.66
2022-10-04T04:41:27.709Z,8.53
2022-10-04T04:43:56.856Z,8.61
2022-10-04T04:46:29.315Z,8.61
2022-10-04T04:49:05.495Z,8.54
2022-10-04T04:51:35.044Z,8.52
2022-10-04T04:54:07.976Z,8.60
2022-10-04T04:56:37.306Z,8.63
2022-10-04T04:59:09.432Z,8.59
2022-10-04T05:01:45.965Z,8.66
2022-10-04T05:04:24.033Z,8.59
2022-10-04T05:07:03.837Z,8.62
2022-10-04T05:09:34.900Z,8.71
2022-10-04T05:12:11.612Z,8.69
2022-10-04T05:14:46.889Z,8.64
2022-10-04T05:17:24.184Z,8.69
2022-10-04T05:19:57.208Z,8.74
2022-10-04T05:22:28.323Z,8.77
2022-10-04T05:25:02.798Z,8.76
2022-10-04T05:27:38.402Z,8.74
2022-10-04T05:30:14.013Z,8.76
2022-10-04T05:32:59.226Z,8.75
2022-10-04T05:35:30.767Z,8.74
2022-10-04T05:38:09.688Z,8.72
2022-10-04T05:40:51.426Z,8.73
2022-10-04T05:43:33.254Z,8.63
2022-10-04T05:46:33.766Z,8.68
2022-10-04T05:49:18.207Z,8.64
2022-10-04T05:51:56.012Z,8.64
2022-10-04T05:54:28.966Z,8.62
2022-10-04T05:57:32.851Z,8.68
2022-10-04T06:00:16.985Z,8.71
2022-10-04T06:03:18.744Z,8.66
2022-10-04T06:05:56.215Z,8.63
2022-10-04T06:08:48.221Z,8.70
2022-10-04T06:11:34.214Z,8.79
2022-10-04T06:14:58.621Z,8.72
2022-10-04T06:17:45.242Z,8.69
2022-10-04T06:20:57.872Z,8.75
2022-10-04T06:23:29.606Z,8.76
2022-10-04T06:26:05.679Z,8.80
2022-10-04T06:28:40.882Z,8.77
2022-10-04T06:31:44.055Z,8.78
2022-10-04T06:34:59.098Z,8.86
2022-10-04T06:38:06.684Z,8.92
2022-10-04T06:41:31.006Z,8.97
2022-10-04T06:44:32.514Z,8.91
2022-10-04T06:47:24.856Z,8.86
2022-10-04T06:50:01.366Z,8.91
2022-10-04T06:53:16.788Z,8.91
2022-10-04T06:56:23.768Z,8.89
2022-10-04T06:59:30.594Z,8.89
2022-10-04T07:02:05.756Z,8.99
2022-10-04T07:05:07.019Z,8.89
2022-10-04T07:07:38.504Z,9.00
2022-10-04T07:10:31.167Z,9.12
2022-10-04T07:13:25.466Z,9.11
2022-10-04T07:16:08.107Z,9.17
2022-10-04T07:18:46.803Z,9.13
2022-10-04T07:21:18.452Z,9.34
2022-10-04T07:23:54.122Z,9.29
2022-10-04T07:26:32.097Z,9.35
2022-10-04T07:29:24.004Z,9.37
2022-10-04T07:32:07.878Z,9.40
2022-10-04T07:34:44.289Z,9.41
2022-10-04T07:37:15.948Z,9.45
2022-10-04T07:39:54.249Z,9.50
2022-10-04T07:42:30.901Z,9.69
2022-10-04T07:45:17.691Z,9.71
2022-10-04T07:47:46.653Z,9.80
2022-10-04T07:50:25.463Z,9.91
2022-10-04T07:53:09.485Z,9.96
2022-10-04T07:55:56.999Z,9.94
2022-10-04T07:58:46.432Z,9.98
2022-10-04T08:01:33.460Z,10.15
2022-10-04T08:04:15.856Z,10.05
2022-10-04T08:06:59.169Z,10.13
2022-10-04T08:09:50.089Z,10.22
2022-10-04T08:12:31.246Z,10.20
2022-10-04T08:15:31.124Z,10.22
2022-10-04T08:18:19.651Z,10.34
2022-10-04T08:20:58.045Z,10.36
2022-10-04T08:24:16.886Z,10.46
2022-10-04T08:27:07.668Z,10.46
2022-10-04T08:30:02.347Z,10.69
2022-10-04T08:33:06.745Z,10.76
2022-10-04T08:36:08.709Z,10.87
2022-10-04T08:38:55.542Z,10.83
2022-10-04T08:42:42.972Z,10.81
2022-10-04T08:46:06.516Z,10.98
2022-10-04T08:49:28.147Z,10.80
2022-10-04T08:52:51.177Z,10.71
2022-10-04T08:55:48.654Z,10.71
2022-10-04T08:58:49.222Z,10.85
2022-10-04T09:01:53.268Z,10.87
2022-10-04T09:04:55.947Z,10.88
2022-10-04T09:08:16.088Z,10.97
2022-10-04T09:11:32.791Z,10.99
2022-10-04T09:14:36.834Z,11.32
2022-10-04T09:17:23.743Z,11.36
2022-10-04T09:20:20.033Z,11.26
2022-10-04T09:23:10.315Z,11.18
2022-10-04T09:26:16.640Z,11.26
2022-10-04T09:29:44.893Z,11.24
2022-10-04T09:33:27.018Z,11.21
2022-10-04T09:36:42.890Z,11.35
2022-10-04T09:40:13.992Z,11.37
2022-10-04T09:43:59.093Z,11.59
2022-10-04T09:47:02.008Z,11.53
2022-10-04T09:50:07.289Z,11.26
2022-10-04T09:52:49.668Z,11.34
2022-10-04T09:55:44.206Z,11.27
2022-10-04T09:58:58.703Z,11.34
2022-10-04T10:01:37.252Z,11.44
2022-10-04T10:04:52.184Z,11.61
2022-10-04T10:07:55.163Z,11.71
2022-10-04T10:11:01.531Z,11.77
2022-10-04T10:14:12.578Z,11.90
2022-10-04T10:17:05.277Z,12.08
2022-10-04T10:20:26.798Z,12.24
2022-10-04T10:23:21.520Z,12.22
2022-10-04T10:26:42.581Z,12.16
2022-10-04T10:30:17.686Z,12.13
2022-10-04T10:33:38.266Z,12.12
2022-10-04T10:36:45.435Z,11.97
2022-10-04T10:40:06.101Z,12.03
2022-10-04T10:43:21.005Z,11.91
2022-10-04T10:46:09.668Z,11.90
2022-10-04T10:49:12.507Z,11.97
2022-10-04T10:52:25.910Z,11.94
2022-10-04T10:55:55.017Z,12.00
2022-10-04T10:59:22.968Z,11.99
2022-10-04T11:02:50.485Z,12.03
2022-10-04T11:06:35.644Z,12.01
2022-10-04T11:10:02.290Z,12.01
2022-10-04T11:13:05.984Z,12.03
2022-10-04T11:16:14.247Z,12.25
2022-10-04T11:19:38.179Z,12.57
2022-10-04T11:23:15.160Z,12.80
2022-10-04T11:26:39.885Z,12.97
2022-10-04T11:29:35.050Z,12.83
2022-10-04T11:33:16.565Z,12.80
2022-10-04T11:36:31.194Z,12.78
2022-10-04T11:39:31.784Z,12.83
2022-10-04T11:42:47.002Z,12.85
2022-10-04T11:45:39.337Z,12.64
2022-10-04T11:48:41.553Z,12.74
2022-10-04T11:52:19.647Z,12.64
2022-10-04T11:55:58.571Z,12.60
2022-10-04T11:58:46.781Z,12.68
2022-10-04T12:02:19.021Z,12.43
2022-10-04T12:05:50.086Z,12.46
2022-10-04T12:08:34.759Z,12.46
2022-10-04T12:12:05.411Z,12.49
2022-10-04T12:14:59.748Z,12.41
2022-10-04T12:18:14.820Z,12.44
2022-10-04T12:21:41.952Z,12.22
2022-10-04T12:25:13.648Z,12.20
2022-10-04T12:28:28.297Z,12.22
2022-10-04T12:31:26.796Z,12.05
2022-10-04T12:34:15.835Z,11.99
2022-10-04T12:37:22.526Z,11.99
2022-10-04T12:40:30.342Z,11.94
2022-10-04T12:43:15.985Z,12.00
2022-10-04T12:46:10.728Z,11.96
2022-10-04T12:49:21.781Z,11.97
2022-10-04T12:52:04.998Z,11.95
2022-10-04T12:54:47.620Z,11.89
2022-10-04T12:57:45.384Z,11.86
2022-10-04T13:00:23.896Z,11.94
2022-10-04T13:03:33.998Z,11.90
2022-10-04T13:06:21.744Z,11.87
2022-10-04T13:09:09.423Z,11.89
2022-10-04T13:12:08.897Z,11.72
2022-10-04T13:14:58.512Z,11.64
2022-10-04T13:17:44.927Z,11.62
2022-10-04T13:20:40.646Z,11.54
2022-10-04T13:23:24.612Z,11.46
2022-10-04T13:26:16.860Z,11.46
2022-10-04T13:29:04.445Z,11.40
2022-10-04T13:31:42.450Z,11.31
2022-10-04T13:34:26.889Z,11.35
2022-10-04T13:37:27.232Z,11.26
2022-10-04T13:40:35.602Z,11.22
2022-10-04T13:43:44.545Z,11.17
2022-10-04T13:46:32.329Z,11.20
2022-10-04T13:49:37.950Z,11.18
2022-10-04T13:52:42.611Z,11.24
2022-10-04T13:55:46.025Z,11.27
2022-10-04T13:58:36.115Z,11.14
2022-10-04T14:01:44.721Z,11.15
2022-10-04T14:05:15.980Z,11.05
2022-10-04T14:08:22.492Z,11.05
2022-10-04T14:11:46.460Z,11.01
2022-10-04T14:15:12.177Z,10.98
2022-10-04T14:18:17.194Z,10.87
2022-10-04T14:21:35.925Z,10.87
2022-10-04T14:24:53.789Z,10.82
2022-10-04T14:28:04.558Z,10.71
2022-10-04T14:30:53.235Z,10.61
2022-10-04T14:34:03.375Z,10.53
2022-10-04T14:37:32.633Z,10.57
2022-10-04T14:40:28.723Z,10.55
2022-10-04T14:43:39.087Z,10.55
2022-10-04T14:46:23.752Z,10.48
2022-10-04T14:49:19.675Z,10.45
2022-10-04T14:52:14.403Z,10.38
2022-10-04T14:54:54.025Z,10.33
2022-10-04T14:57:51.259Z,10.25
2022-10-04T15:00:22.222Z,10.30
2022-10-04T15:03:32.093Z,10.36
2022-10-04T15:06:13.393Z,10.35
2022-10-04T15:09:07.523Z,10.34
2022-10-04T15:12:21.626Z,10.27
2022-10-04T15:15:05.387Z,10.24
2022-10-04T15:17:42.466Z,10.19
2022-10-04T15:20:28.423Z,10.18
2022-10-04T15:23:16.198Z,10.13
2022-10-04T15:25:48.622Z,9.99
2022-10-04T15:28:51.525Z,10.05
2022-10-04T15:31:29.978Z,10.01
2022-10-04T15:34:08.032Z,10.01
2022-10-04T15:37:05.084Z,9.87
2022-10-04T15:40:17.632Z,9.79
2022-10-04T15:43:30.253Z,9.77
2022-10-04T15:46:37.618Z,9.67
2022-10-04T15:49:37.953Z,9.60
2022-10-04T15:52:45.544Z,9.52
2022-10-04T15:55:38.731Z,9.50
2022-10-04T15:58:37.218Z,9.43
2022-10-04T16:01:35.060Z,9.36
2022-10-04T16:04:48.817Z,9.31
2022-10-04T16:07:43.121Z,9.29
2022-10-04T16:10:31.220Z,9.16
2022-10-04T16:13:34.175Z,9.19
2022-10-04T16:17:00.273Z,9.17
2022-10-04T16:19:59.315Z,9.10
2022-10-04T16:22:31.642Z,8.94
2022-10-04T16:25:21.417Z,8.96
2022-10-04T16:28:08.292Z,8.78
2022-10-04T16:30:45.120Z,8.74
2022-10-04T16:33:30.406Z,8.67
2022-10-04T16:36:12.950Z,8.63
2022-10-04T16:39:10.364Z,8.56
2022-10-04T16:41:45.569Z,8.53
2022-10-04T16:44:36.056Z,8.45
2022-10-04T16:47:22.885Z,8.38
2022-10-04T16:49:57.233Z,8.40
2022-10-04T16:52:50.941Z,8.37
2022-10-04T16:55:57.007Z,8.28
2022-10-04T16:58:53.841Z,8.33
2022-10-04T17:02:22.701Z,8.27
2022-10-04T17:05:25.695Z,8.23
2022-10-04T17:08:24.041Z,8.26
2022-10-04T17:11:28.094Z,8.21
2022-10-04T17:14:02.759Z,8.21
2022-10-04T17:16:39.765Z,8.14
2022-10-04T17:19:35.964Z,8.08
2022-10-04T17:22:21.954Z,8.05
2022-10-04T17:25:05.647Z,8.03
2022-10-04T17:27:49.588Z,7.98
2022-10-04T17:30:25.378Z,7.96
2022-10-04T17:33:17.481Z,7.96
2022-10-04T17:36:41.174Z,7.95
2022-10-04T17:39:39.177Z,7.88
2022-10-04T17:42:27.956Z,7.80
2022-10-04T17:45:22.673Z,7.84
2022-10-04T17:48:20.717Z,7.78
2022-10-04T17:51:19.040Z,7.75
2022-10-04T17:54:15.305Z,7.70
2022-10-04T17:56:51.998Z,7.69
2022-10-04T17:59:30.716Z,7.68
2022-10-04T18:02:12.901Z,7.64
2022-10-04T18:04:54.808Z,7.74
2022-10-04T18:07:29.725Z,7.63
2022-10-04T18:10:04.488Z,7.75
2022-10-04T18:12:40.393Z,7.77
2022-10-04T18:15:25.984Z,7.70
2022-10-04T18:18:21.836Z,7.81
2022-10-04T18:21:18.952Z,7.79
2022-10-04T18:23:57.302Z,7.75
2022-10-04T18:26:56.513Z,7.69
2022-10-04T18:30:04.341Z,7.67
2022-10-04T18:32:38.177Z,7.61
2022-10-04T18:35:29.853Z,7.64
2022-10-04T18:38:27.168Z,7.61
2022-10-04T18:41:01.842Z,7.46
2022-10-04T18:43:41.796Z,7.37
2022-10-04T18:46:21.241Z,7.26
2022-10-04T18:48:56.658Z,7.10
2022-10-04T18:51:30.266Z,7.07
2022-10-04T18:54:22.844Z,7.06
2022-10-04T18:57:11.390Z,6.98
2022-10-04T19:00:16.162Z,7.06
2022-10-04T19:02:59.100Z,7.12
2022-10-04T19:05:41.199Z,7.14
2022-10-04T19:08:35.008Z,7.22
2022-10-04T19:11:10.944Z,7.19
2022-10-04T19:13:51.647Z,7.07
2022-10-04T19:16:41.703Z,7.22
2022-10-04T19:19:40.878Z,7.23
2022-10-04T19:22:33.339Z,7.21
2022-10-04T19:25:26.708Z,7.38
2022-10-04T19:28:04.551Z,7.38
2022-10-04T19:31:02.975Z,7.34
2022-10-04T19:33:46.049Z,7.35
2022-10-04T19:36:34.093Z,7.28
2022-10-04T19:39:23.564Z,7.18
2022-10-04T19:42:01.249Z,7.20
2022-10-04T19:45:16.471Z,7.14
2022-10-04T19:47:54.771Z,7.31
2022-10-04T19:50:29.494Z,7.17
2022-10-04T19:53:07.960Z,7.22
2022-10-04T19:55:54.044Z,7.19
2022-10-04T19:58:41.917Z,7.15
2022-10-04T20:01:14.162Z,7.01
2022-10-04T20:03:43.678Z,6.95
2022-10-04T20:06:26.376Z,6.89
2022-10-04T20:09:02.621Z,6.91
2022-10-04T20:11:49.768Z,6.93
2022-10-04T20:14:48.360Z,6.96
2022-10-04T20:17:40.276Z,6.97
2022-10-04T20:20:09.831Z,7.12
2022-10-04T20:22:58.499Z,7.16
2022-10-04T20:26:02.311Z,7.16
2022-10-04T20:28:44.774Z,7.23
2022-10-04T20:31:58.082Z,7.35
2022-10-04T20:34:35.951Z,7.38
2022-10-04T20:37:06.631Z,7.38
2022-10-04T20:40:03.423Z,7.38
2022-10-04T20:42:35.823Z,7.37
2022-10-04T20:45:23.387Z,7.41
2022-10-04T20:47:57.554Z,7.44
2022-10-04T20:50:38.904Z,7.40
2022-10-04T20:53:17.618Z,7.42
2022-10-04T20:55:48.295Z,7.42
2022-10-04T20:58:32.298Z,7.42
2022-10-04T21:01:14.066Z,7.50
2022-10-04T21:03:42.826Z,7.44
2022-10-04T21:06:13.141Z,7.44
2022-10-04T21:08:42.295Z,7.37
2022-10-04T21:11:22.955Z,7.36
2022-10-04T21:14:00.436Z,7.37
2022-10-04T21:16:57.570Z,7.30
2022-10-04T21:19:54.160Z,7.38
2022-10-04T21:22:40.299Z,7.32
2022-10-04T21:25:33.108Z,7.30
2022-10-04T21:28:37.659Z,7.31
2022-10-04T21:31:06.773Z,7.41
2022-10-04T21:33:37.482Z,7.33
2022-10-04T21:36:07.718Z,7.44
2022-10-04T21:38:36.422Z,7.37
2022-10-04T21:41:05.601Z,7.40
2022-10-04T21:43:34.515Z,7.39
2022-10-04T21:46:04.849Z,7.32
2022-10-04T21:48:33.632Z,7.33
2022-10-04T21:51:02.280Z,7.45
2022-10-04T21:53:30.964Z,7.34
2022-10-04T21:55:59.582Z,7.41
2022-10-04T21:58:28.230Z,7.45
2022-10-04T22:00:57.017Z,7.44
2022-10-04T22:03:27.430Z,7.44
2022-10-04T22:05:56.046Z,7.48
2022-10-04T22:08:24.714Z,7.54
2022-10-04T22:10:57.474Z,7.60
2022-10-04T22:13:27.000Z,7.58
2022-10-04T22:15:55.824Z,7.55
2022-10-04T22:18:26.207Z,7.67
2022-10-04T22:20:54.946Z,7.62
2022-10-04T22:23:26.421Z,7.69
2022-10-04T22:25:56.548Z,7.70
2022-10-04T22:28:28.589Z,7.68
2022-10-04T22:30:58.258Z,7.71
2022-10-04T22:33:36.433Z,7.70
2022-10-04T22:36:15.947Z,7.70
2022-10-04T22:38:51.200Z,7.68
2022-10-04T22:41:21.294Z,7.68
2022-10-04T22:43:51.681Z,7.78
2022-10-04T22:46:21.829Z,7.66
2022-10-04T22:48:52.168Z,7.66
2022-10-04T22:51:21.436Z,7.70
2022-10-04T22:53:50.198Z,7.75
2022-10-04T22:56:18.839Z,7.69
2022-10-04T22:58:47.749Z,7.72
2022-10-04T23:01:19.125Z,7.77
2022-10-04T23:03:51.179Z,7.72
2022-10-04T23:06:19.968Z,7.81
2022-10-04T23:08:48.602Z,7.68
2022-10-04T23:11:17.220Z,7.75
2022-10-04T23:13:46.102Z,7.69
2022-10-04T23:16:23.445Z,7.73
2022-10-04T23:19:03.253Z,7.73
2022-10-04T23:21:35.722Z,7.85
2022-10-04T23:24:15.982Z,7.86
2022-10-04T23:26:48.477Z,7.89
2022-10-04T23:29:22.834Z,7.84
2022-10-04T23:31:52.743Z,7.82
2022-10-04T23:34:30.271Z,7.90
2022-10-04T23:36:59.234Z,7.89
2022-10-04T23:39:31.583Z,7.81
2022-10-04T23:42:02.161Z,7.79
2022-10-04T23:44:36.480Z,7.81
2022-10-04T23:47:12.420Z,7.79
2022-10-04T23:49:43.987Z,7.74
2022-10-04T23:52:21.577Z,7.79
2022-10-04T23:54:52.174Z,7.73
2022-10-04T23:57:25.821Z,7.84
2022-10-04T23:59:54.646Z,7.81
